sensor_id;sensor_type;location;lat;lon;timestamp;P1;durP1;ratioP1;P2;durP2;ratioP2
12871;SDS011;6504;53.766;9.626;2023-04-24T00:00:15;10.80;;;10.00;;
12871;SDS011;6504;53.766;9.626;2023-04-24T00:02:44;9.67;;;8.87;;
12871;SDS011;6504;53.766;9.626;2023-04-24T00:05:13;10.63;;;9.63;;
12871;SDS011;6504;53.766;9.626;2023-04-24T00:07:44;10.37;;;9.47;;
12871;SDS011;6504;53.766;9.626;2023-04-24T00:10:12;10.57;;;9.67;;
12871;SDS011;6504;53.766;9.626;2023-04-24T00:12:40;9.77;;;8.93;;
12871;SDS011;6504;53.766;9.626;2023-04-24T00:15:09;9.47;;;8.67;;
12871;SDS011;6504;53.766;9.626;2023-04-24T00:17:37;10.40;;;9.40;;
12871;SDS011;6504;53.766;9.626;2023-04-24T00:20:06;8.87;;;8.17;;
12871;SDS011;6504;53.766;9.626;2023-04-24T00:22:36;9.47;;;8.67;;
12871;SDS011;6504;53.766;9.626;2023-04-24T00:25:06;9.17;;;8.37;;
12871;SDS011;6504;53.766;9.626;2023-04-24T00:27:35;10.00;;;9.20;;
12871;SDS011;6504;53.766;9.626;2023-04-24T00:30:03;10.03;;;9.13;;
12871;SDS011;6504;53.766;9.626;2023-04-24T00:32:32;9.60;;;8.80;;
12871;SDS011;6504;53.766;9.626;2023-04-24T00:35:00;10.17;;;9.27;;
12871;SDS011;6504;53.766;9.626;2023-04-24T00:37:28;8.93;;;8.20;;
12871;SDS011;6504;53.766;9.626;2023-04-24T00:39:56;10.23;;;9.23;;
12871;SDS011;6504;53.766;9.626;2023-04-24T00:42:26;9.97;;;9.13;;
12871;SDS011;6504;53.766;9.626;2023-04-24T00:44:54;10.70;;;9.80;;
12871;SDS011;6504;53.766;9.626;2023-04-24T00:47:23;10.23;;;9.33;;
12871;SDS011;6504;53.766;9.626;2023-04-24T00:49:52;10.17;;;9.27;;
12871;SDS011;6504;53.766;9.626;2023-04-24T00:52:20;10.60;;;9.70;;
12871;SDS011;6504;53.766;9.626;2023-04-24T00:54:50;10.30;;;9.47;;
12871;SDS011;6504;53.766;9.626;2023-04-24T00:57:18;10.07;;;9.27;;
12871;SDS011;6504;53.766;9.626;2023-04-24T00:59:49;9.47;;;8.77;;
12871;SDS011;6504;53.766;9.626;2023-04-24T01:02:17;9.87;;;9.07;;
12871;SDS011;6504;53.766;9.626;2023-04-24T01:04:46;9.70;;;8.90;;
12871;SDS011;6504;53.766;9.626;2023-04-24T01:07:15;9.17;;;8.37;;
12871;SDS011;6504;53.766;9.626;2023-04-24T01:09:44;10.13;;;9.33;;
12871;SDS011;6504;53.766;9.626;2023-04-24T01:12:15;9.77;;;8.97;;
12871;SDS011;6504;53.766;9.626;2023-04-24T01:14:43;9.37;;;8.57;;
12871;SDS011;6504;53.766;9.626;2023-04-24T01:17:12;9.50;;;8.60;;
12871;SDS011;6504;53.766;9.626;2023-04-24T01:19:41;9.23;;;8.33;;
12871;SDS011;6504;53.766;9.626;2023-04-24T01:22:12;8.73;;;7.97;;
12871;SDS011;6504;53.766;9.626;2023-04-24T01:24:41;9.33;;;8.47;;
12871;SDS011;6504;53.766;9.626;2023-04-24T01:27:09;8.93;;;8.13;;
12871;SDS011;6504;53.766;9.626;2023-04-24T01:29:38;9.10;;;8.33;;
12871;SDS011;6504;53.766;9.626;2023-04-24T01:32:06;9.47;;;8.57;;
12871;SDS011;6504;53.766;9.626;2023-04-24T01:34:34;8.47;;;7.80;;
12871;SDS011;6504;53.766;9.626;2023-04-24T01:37:02;9.53;;;8.73;;
12871;SDS011;6504;53.766;9.626;2023-04-24T01:39:32;8.50;;;7.67;;
12871;SDS011;6504;53.766;9.626;2023-04-24T01:42:00;8.13;;;7.43;;
12871;SDS011;6504;53.766;9.626;2023-04-24T01:44:28;8.37;;;7.77;;
12871;SDS011;6504;53.766;9.626;2023-04-24T01:46:57;8.57;;;7.87;;
12871;SDS011;6504;53.766;9.626;2023-04-24T01:49:25;8.70;;;7.93;;
12871;SDS011;6504;53.766;9.626;2023-04-24T01:51:54;8.00;;;7.30;;
12871;SDS011;6504;53.766;9.626;2023-04-24T01:54:22;7.87;;;7.27;;
12871;SDS011;6504;53.766;9.626;2023-04-24T01:56:51;7.50;;;6.90;;
12871;SDS011;6504;53.766;9.626;2023-04-24T01:59:19;7.47;;;6.87;;
12871;SDS011;6504;53.766;9.626;2023-04-24T02:01:48;6.80;;;6.27;;
12871;SDS011;6504;53.766;9.626;2023-04-24T02:04:16;6.57;;;6.07;;
12871;SDS011;6504;53.766;9.626;2023-04-24T02:06:45;6.57;;;6.07;;
12871;SDS011;6504;53.766;9.626;2023-04-24T02:09:13;6.47;;;5.97;;
12871;SDS011;6504;53.766;9.626;2023-04-24T02:11:41;6.20;;;5.70;;
12871;SDS011;6504;53.766;9.626;2023-04-24T02:14:10;6.43;;;5.90;;
12871;SDS011;6504;53.766;9.626;2023-04-24T02:16:38;5.67;;;5.27;;
12871;SDS011;6504;53.766;9.626;2023-04-24T02:19:06;5.70;;;5.30;;
12871;SDS011;6504;53.766;9.626;2023-04-24T02:21:34;5.83;;;5.30;;
12871;SDS011;6504;53.766;9.626;2023-04-24T02:24:02;5.63;;;5.13;;
12871;SDS011;6504;53.766;9.626;2023-04-24T02:26:31;5.57;;;5.10;;
12871;SDS011;6504;53.766;9.626;2023-04-24T02:28:59;5.13;;;4.73;;
12871;SDS011;6504;53.766;9.626;2023-04-24T02:31:29;5.07;;;4.67;;
12871;SDS011;6504;53.766;9.626;2023-04-24T02:33:57;5.00;;;4.60;;
12871;SDS011;6504;53.766;9.626;2023-04-24T02:36:25;4.80;;;4.40;;
12871;SDS011;6504;53.766;9.626;2023-04-24T02:38:53;4.63;;;4.33;;
12871;SDS011;6504;53.766;9.626;2023-04-24T02:41:21;4.40;;;4.10;;
12871;SDS011;6504;53.766;9.626;2023-04-24T02:43:49;4.33;;;4.03;;
12871;SDS011;6504;53.766;9.626;2023-04-24T02:46:18;4.43;;;4.13;;
12871;SDS011;6504;53.766;9.626;2023-04-24T02:48:47;4.50;;;4.20;;
12871;SDS011;6504;53.766;9.626;2023-04-24T02:51:15;4.00;;;3.70;;
12871;SDS011;6504;53.766;9.626;2023-04-24T02:53:43;4.77;;;4.37;;
12871;SDS011;6504;53.766;9.626;2023-04-24T02:56:11;4.17;;;3.87;;
12871;SDS011;6504;53.766;9.626;2023-04-24T02:58:39;4.47;;;4.07;;
12871;SDS011;6504;53.766;9.626;2023-04-24T03:01:08;4.57;;;4.17;;
12871;SDS011;6504;53.766;9.626;2023-04-24T03:03:36;4.63;;;4.33;;
12871;SDS011;6504;53.766;9.626;2023-04-24T03:06:06;4.80;;;3.70;;
12871;SDS011;6504;53.766;9.626;2023-04-24T03:08:35;4.07;;;3.77;;
12871;SDS011;6504;53.766;9.626;2023-04-24T03:11:03;4.50;;;4.20;;
12871;SDS011;6504;53.766;9.626;2023-04-24T03:13:31;3.93;;;3.63;;
12871;SDS011;6504;53.766;9.626;2023-04-24T03:15:59;4.37;;;4.03;;
12871;SDS011;6504;53.766;9.626;2023-04-24T03:18:27;4.23;;;3.83;;
12871;SDS011;6504;53.766;9.626;2023-04-24T03:20:55;4.03;;;3.73;;
12871;SDS011;6504;53.766;9.626;2023-04-24T03:23:25;4.00;;;3.60;;
12871;SDS011;6504;53.766;9.626;2023-04-24T03:25:53;3.57;;;3.27;;
12871;SDS011;6504;53.766;9.626;2023-04-24T03:28:22;3.47;;;3.27;;
12871;SDS011;6504;53.766;9.626;2023-04-24T03:30:51;3.33;;;3.13;;
12871;SDS011;6504;53.766;9.626;2023-04-24T03:33:19;3.27;;;3.07;;
12871;SDS011;6504;53.766;9.626;2023-04-24T03:35:47;2.90;;;2.70;;
12871;SDS011;6504;53.766;9.626;2023-04-24T03:38:15;3.43;;;3.13;;
12871;SDS011;6504;53.766;9.626;2023-04-24T03:40:44;2.90;;;2.70;;
12871;SDS011;6504;53.766;9.626;2023-04-24T03:43:12;3.17;;;2.97;;
12871;SDS011;6504;53.766;9.626;2023-04-24T03:45:40;2.77;;;2.60;;
12871;SDS011;6504;53.766;9.626;2023-04-24T03:48:08;3.00;;;2.80;;
12871;SDS011;6504;53.766;9.626;2023-04-24T03:50:37;2.60;;;2.40;;
12871;SDS011;6504;53.766;9.626;2023-04-24T03:53:05;3.10;;;2.80;;
12871;SDS011;6504;53.766;9.626;2023-04-24T03:55:33;2.77;;;2.57;;
12871;SDS011;6504;53.766;9.626;2023-04-24T03:58:02;2.63;;;2.43;;
12871;SDS011;6504;53.766;9.626;2023-04-24T04:00:30;2.97;;;2.77;;
12871;SDS011;6504;53.766;9.626;2023-04-24T04:02:59;2.90;;;2.70;;
12871;SDS011;6504;53.766;9.626;2023-04-24T04:05:27;2.80;;;2.60;;
12871;SDS011;6504;53.766;9.626;2023-04-24T04:07:56;3.00;;;2.80;;
12871;SDS011;6504;53.766;9.626;2023-04-24T04:10:24;3.20;;;2.90;;
12871;SDS011;6504;53.766;9.626;2023-04-24T04:12:52;3.00;;;2.80;;
12871;SDS011;6504;53.766;9.626;2023-04-24T04:15:21;3.40;;;3.10;;
12871;SDS011;6504;53.766;9.626;2023-04-24T04:17:49;2.90;;;2.70;;
12871;SDS011;6504;53.766;9.626;2023-04-24T04:20:17;3.03;;;2.83;;
12871;SDS011;6504;53.766;9.626;2023-04-24T04:22:45;3.37;;;3.07;;
12871;SDS011;6504;53.766;9.626;2023-04-24T04:25:13;2.90;;;2.70;;
12871;SDS011;6504;53.766;9.626;2023-04-24T04:27:41;3.00;;;2.80;;
12871;SDS011;6504;53.766;9.626;2023-04-24T04:30:09;3.00;;;2.80;;
12871;SDS011;6504;53.766;9.626;2023-04-24T04:32:39;3.50;;;3.30;;
12871;SDS011;6504;53.766;9.626;2023-04-24T04:35:07;3.17;;;2.97;;
12871;SDS011;6504;53.766;9.626;2023-04-24T04:37:35;3.70;;;3.40;;
12871;SDS011;6504;53.766;9.626;2023-04-24T04:40:04;3.27;;;3.00;;
12871;SDS011;6504;53.766;9.626;2023-04-24T04:42:33;3.93;;;3.53;;
12871;SDS011;6504;53.766;9.626;2023-04-24T04:45:01;3.87;;;3.57;;
12871;SDS011;6504;53.766;9.626;2023-04-24T04:47:30;3.43;;;3.23;;
12871;SDS011;6504;53.766;9.626;2023-04-24T04:50:00;3.47;;;3.23;;
12871;SDS011;6504;53.766;9.626;2023-04-24T04:52:29;3.70;;;3.40;;
12871;SDS011;6504;53.766;9.626;2023-04-24T04:54:57;3.80;;;3.50;;
12871;SDS011;6504;53.766;9.626;2023-04-24T04:57:26;3.50;;;3.30;;
12871;SDS011;6504;53.766;9.626;2023-04-24T04:59:54;3.90;;;3.60;;
12871;SDS011;6504;53.766;9.626;2023-04-24T05:02:22;3.43;;;3.23;;
12871;SDS011;6504;53.766;9.626;2023-04-24T05:04:50;3.80;;;3.43;;
12871;SDS011;6504;53.766;9.626;2023-04-24T05:07:20;3.67;;;3.43;;
12871;SDS011;6504;53.766;9.626;2023-04-24T05:09:48;4.10;;;3.80;;
12871;SDS011;6504;53.766;9.626;2023-04-24T05:12:17;4.30;;;3.90;;
12871;SDS011;6504;53.766;9.626;2023-04-24T05:14:45;4.87;;;3.20;;
12871;SDS011;6504;53.766;9.626;2023-04-24T05:17:13;3.90;;;3.60;;
12871;SDS011;6504;53.766;9.626;2023-04-24T05:19:41;3.43;;;3.17;;
12871;SDS011;6504;53.766;9.626;2023-04-24T05:22:10;3.80;;;3.50;;
12871;SDS011;6504;53.766;9.626;2023-04-24T05:24:39;3.33;;;3.03;;
12871;SDS011;6504;53.766;9.626;2023-04-24T05:27:07;3.87;;;3.57;;
12871;SDS011;6504;53.766;9.626;2023-04-24T05:29:35;3.70;;;3.40;;
12871;SDS011;6504;53.766;9.626;2023-04-24T05:32:03;3.33;;;3.13;;
12871;SDS011;6504;53.766;9.626;2023-04-24T05:34:32;3.87;;;3.20;;
12871;SDS011;6504;53.766;9.626;2023-04-24T05:37:00;4.90;;;3.50;;
12871;SDS011;6504;53.766;9.626;2023-04-24T05:39:28;3.70;;;3.40;;
12871;SDS011;6504;53.766;9.626;2023-04-24T05:41:57;3.33;;;3.10;;
12871;SDS011;6504;53.766;9.626;2023-04-24T05:44:25;2.93;;;2.73;;
12871;SDS011;6504;53.766;9.626;2023-04-24T05:46:53;3.53;;;3.23;;
12871;SDS011;6504;53.766;9.626;2023-04-24T05:49:22;4.50;;;3.20;;
12871;SDS011;6504;53.766;9.626;2023-04-24T05:51:50;3.00;;;2.77;;
12871;SDS011;6504;53.766;9.626;2023-04-24T05:54:18;3.00;;;2.80;;
12871;SDS011;6504;53.766;9.626;2023-04-24T05:56:46;3.40;;;2.53;;
12871;SDS011;6504;53.766;9.626;2023-04-24T05:59:15;3.00;;;2.70;;
12871;SDS011;6504;53.766;9.626;2023-04-24T06:01:43;3.37;;;3.00;;
12871;SDS011;6504;53.766;9.626;2023-04-24T06:04:11;5.57;;;2.70;;
12871;SDS011;6504;53.766;9.626;2023-04-24T06:06:41;3.23;;;2.53;;
12871;SDS011;6504;53.766;9.626;2023-04-24T06:09:09;3.00;;;2.70;;
12871;SDS011;6504;53.766;9.626;2023-04-24T06:11:38;6.47;;;3.83;;
12871;SDS011;6504;53.766;9.626;2023-04-24T06:14:06;3.30;;;2.90;;
12871;SDS011;6504;53.766;9.626;2023-04-24T06:16:35;3.63;;;2.67;;
12871;SDS011;6504;53.766;9.626;2023-04-24T06:19:05;3.13;;;2.43;;
12871;SDS011;6504;53.766;9.626;2023-04-24T06:21:33;3.17;;;2.70;;
12871;SDS011;6504;53.766;9.626;2023-04-24T06:24:01;11.30;;;3.77;;
12871;SDS011;6504;53.766;9.626;2023-04-24T06:26:30;10.77;;;3.20;;
12871;SDS011;6504;53.766;9.626;2023-04-24T06:28:58;3.37;;;2.70;;
12871;SDS011;6504;53.766;9.626;2023-04-24T06:31:26;6.77;;;3.00;;
12871;SDS011;6504;53.766;9.626;2023-04-24T06:33:56;10.00;;;3.50;;
12871;SDS011;6504;53.766;9.626;2023-04-24T06:36:24;5.93;;;2.97;;
12871;SDS011;6504;53.766;9.626;2023-04-24T06:38:52;5.33;;;3.20;;
12871;SDS011;6504;53.766;9.626;2023-04-24T06:41:21;3.90;;;2.83;;
12871;SDS011;6504;53.766;9.626;2023-04-24T06:43:48;3.20;;;2.90;;
12871;SDS011;6504;53.766;9.626;2023-04-24T06:46:16;3.57;;;2.80;;
12871;SDS011;6504;53.766;9.626;2023-04-24T06:48:45;3.20;;;2.90;;
12871;SDS011;6504;53.766;9.626;2023-04-24T06:51:14;3.40;;;3.10;;
12871;SDS011;6504;53.766;9.626;2023-04-24T06:53:43;3.40;;;3.10;;
12871;SDS011;6504;53.766;9.626;2023-04-24T06:56:14;3.20;;;3.00;;
12871;SDS011;6504;53.766;9.626;2023-04-24T06:58:42;3.97;;;3.13;;
12871;SDS011;6504;53.766;9.626;2023-04-24T07:01:11;3.70;;;3.17;;
12871;SDS011;6504;53.766;9.626;2023-04-24T07:03:39;3.43;;;3.13;;
12871;SDS011;6504;53.766;9.626;2023-04-24T07:06:08;5.13;;;3.47;;
12871;SDS011;6504;53.766;9.626;2023-04-24T07:08:38;3.53;;;3.23;;
12871;SDS011;6504;53.766;9.626;2023-04-24T07:11:08;3.50;;;3.23;;
12871;SDS011;6504;53.766;9.626;2023-04-24T07:13:36;3.60;;;3.37;;
12871;SDS011;6504;53.766;9.626;2023-04-24T07:16:08;3.97;;;3.60;;
12871;SDS011;6504;53.766;9.626;2023-04-24T07:18:37;3.97;;;3.67;;
12871;SDS011;6504;53.766;9.626;2023-04-24T07:21:06;3.50;;;3.20;;
12871;SDS011;6504;53.766;9.626;2023-04-24T07:23:34;3.67;;;3.37;;
12871;SDS011;6504;53.766;9.626;2023-04-24T07:26:03;4.10;;;3.80;;
12871;SDS011;6504;53.766;9.626;2023-04-24T07:28:32;4.10;;;3.80;;
12871;SDS011;6504;53.766;9.626;2023-04-24T07:31:00;4.00;;;3.70;;
12871;SDS011;6504;53.766;9.626;2023-04-24T07:33:28;4.70;;;4.27;;
12871;SDS011;6504;53.766;9.626;2023-04-24T07:35:56;4.87;;;4.47;;
12871;SDS011;6504;53.766;9.626;2023-04-24T07:38:24;4.70;;;4.30;;
12871;SDS011;6504;53.766;9.626;2023-04-24T07:40:52;4.47;;;4.00;;
12871;SDS011;6504;53.766;9.626;2023-04-24T07:43:23;4.40;;;4.10;;
12871;SDS011;6504;53.766;9.626;2023-04-24T07:45:51;5.37;;;4.97;;
12871;SDS011;6504;53.766;9.626;2023-04-24T07:48:19;6.17;;;5.67;;
12871;SDS011;6504;53.766;9.626;2023-04-24T07:50:48;5.40;;;5.00;;
12871;SDS011;6504;53.766;9.626;2023-04-24T07:53:17;6.03;;;5.53;;
12871;SDS011;6504;53.766;9.626;2023-04-24T07:55:45;5.87;;;5.37;;
12871;SDS011;6504;53.766;9.626;2023-04-24T07:58:13;5.70;;;5.20;;
12871;SDS011;6504;53.766;9.626;2023-04-24T08:00:43;7.80;;;7.10;;
12871;SDS011;6504;53.766;9.626;2023-04-24T08:03:11;7.53;;;6.93;;
12871;SDS011;6504;53.766;9.626;2023-04-24T08:05:40;7.37;;;6.77;;
12871;SDS011;6504;53.766;9.626;2023-04-24T08:08:09;6.87;;;6.23;;
12871;SDS011;6504;53.766;9.626;2023-04-24T08:10:37;5.97;;;5.47;;
12871;SDS011;6504;53.766;9.626;2023-04-24T08:13:05;5.77;;;5.27;;
12871;SDS011;6504;53.766;9.626;2023-04-24T08:15:34;6.00;;;5.53;;
12871;SDS011;6504;53.766;9.626;2023-04-24T08:18:03;6.83;;;6.23;;
12871;SDS011;6504;53.766;9.626;2023-04-24T08:20:31;6.67;;;6.07;;
12871;SDS011;6504;53.766;9.626;2023-04-24T08:22:59;6.50;;;5.90;;
12871;SDS011;6504;53.766;9.626;2023-04-24T08:25:27;6.30;;;5.90;;
12871;SDS011;6504;53.766;9.626;2023-04-24T08:27:55;6.70;;;6.20;;
12871;SDS011;6504;53.766;9.626;2023-04-24T08:30:24;6.80;;;6.30;;
12871;SDS011;6504;53.766;9.626;2023-04-24T08:32:52;7.27;;;6.70;;
12871;SDS011;6504;53.766;9.626;2023-04-24T08:35:21;6.90;;;6.30;;
12871;SDS011;6504;53.766;9.626;2023-04-24T08:37:49;6.40;;;5.90;;
12871;SDS011;6504;53.766;9.626;2023-04-24T08:40:17;7.53;;;6.90;;
12871;SDS011;6504;53.766;9.626;2023-04-24T08:42:47;7.13;;;6.63;;
12871;SDS011;6504;53.766;9.626;2023-04-24T08:45:18;6.97;;;6.27;;
12871;SDS011;6504;53.766;9.626;2023-04-24T08:47:46;6.70;;;6.00;;
12871;SDS011;6504;53.766;9.626;2023-04-24T08:50:15;7.30;;;6.70;;
12871;SDS011;6504;53.766;9.626;2023-04-24T08:52:45;6.60;;;6.00;;
12871;SDS011;6504;53.766;9.626;2023-04-24T08:55:16;6.70;;;6.20;;
12871;SDS011;6504;53.766;9.626;2023-04-24T08:57:49;6.80;;;6.20;;
12871;SDS011;6504;53.766;9.626;2023-04-24T09:00:19;6.80;;;6.20;;
12871;SDS011;6504;53.766;9.626;2023-04-24T09:02:49;7.27;;;6.67;;
12871;SDS011;6504;53.766;9.626;2023-04-24T09:05:18;7.23;;;6.70;;
12871;SDS011;6504;53.766;9.626;2023-04-24T09:07:49;8.17;;;7.47;;
12871;SDS011;6504;53.766;9.626;2023-04-24T09:10:21;7.87;;;7.27;;
12871;SDS011;6504;53.766;9.626;2023-04-24T09:12:51;7.47;;;6.93;;
12871;SDS011;6504;53.766;9.626;2023-04-24T09:15:19;7.77;;;7.17;;
12871;SDS011;6504;53.766;9.626;2023-04-24T09:17:47;8.10;;;7.40;;
12871;SDS011;6504;53.766;9.626;2023-04-24T09:20:16;9.00;;;8.17;;
12871;SDS011;6504;53.766;9.626;2023-04-24T09:22:44;7.37;;;6.67;;
12871;SDS011;6504;53.766;9.626;2023-04-24T09:25:14;7.37;;;6.77;;
12871;SDS011;6504;53.766;9.626;2023-04-24T09:27:42;7.23;;;6.60;;
12871;SDS011;6504;53.766;9.626;2023-04-24T09:30:12;7.47;;;6.87;;
12871;SDS011;6504;53.766;9.626;2023-04-24T09:32:41;7.53;;;6.93;;
12871;SDS011;6504;53.766;9.626;2023-04-24T09:35:10;8.37;;;7.77;;
12871;SDS011;6504;53.766;9.626;2023-04-24T09:37:40;8.23;;;7.63;;
12871;SDS011;6504;53.766;9.626;2023-04-24T09:40:15;9.50;;;8.63;;
12871;SDS011;6504;53.766;9.626;2023-04-24T09:42:44;9.47;;;8.77;;
12871;SDS011;6504;53.766;9.626;2023-04-24T09:45:13;8.97;;;8.17;;
12871;SDS011;6504;53.766;9.626;2023-04-24T09:47:42;9.13;;;8.33;;
12871;SDS011;6504;53.766;9.626;2023-04-24T09:50:11;9.67;;;8.83;;
12871;SDS011;6504;53.766;9.626;2023-04-24T09:52:45;8.63;;;7.83;;
12871;SDS011;6504;53.766;9.626;2023-04-24T09:55:16;8.33;;;7.63;;
12871;SDS011;6504;53.766;9.626;2023-04-24T09:57:49;8.40;;;7.70;;
12871;SDS011;6504;53.766;9.626;2023-04-24T10:00:21;7.67;;;7.17;;
12871;SDS011;6504;53.766;9.626;2023-04-24T10:02:50;8.30;;;7.60;;
12871;SDS011;6504;53.766;9.626;2023-04-24T10:05:24;8.30;;;7.50;;
12871;SDS011;6504;53.766;9.626;2023-04-24T10:07:59;8.33;;;7.63;;
12871;SDS011;6504;53.766;9.626;2023-04-24T10:10:30;8.00;;;7.30;;
12871;SDS011;6504;53.766;9.626;2023-04-24T10:12:59;8.47;;;7.77;;
12871;SDS011;6504;53.766;9.626;2023-04-24T10:15:28;8.47;;;7.77;;
12871;SDS011;6504;53.766;9.626;2023-04-24T10:20:27;7.47;;;6.83;;
12871;SDS011;6504;53.766;9.626;2023-04-24T10:22:57;8.10;;;7.40;;
12871;SDS011;6504;53.766;9.626;2023-04-24T10:25:26;9.13;;;8.27;;
12871;SDS011;6504;53.766;9.626;2023-04-24T10:27:57;9.60;;;7.57;;
12871;SDS011;6504;53.766;9.626;2023-04-24T10:30:27;8.23;;;6.97;;
12871;SDS011;6504;53.766;9.626;2023-04-24T10:32:56;7.50;;;6.80;;
12871;SDS011;6504;53.766;9.626;2023-04-24T10:35:24;7.93;;;7.33;;
12871;SDS011;6504;53.766;9.626;2023-04-24T10:37:54;8.00;;;7.17;;
12871;SDS011;6504;53.766;9.626;2023-04-24T10:40:25;8.70;;;7.70;;
12871;SDS011;6504;53.766;9.626;2023-04-24T10:42:54;8.00;;;7.40;;
12871;SDS011;6504;53.766;9.626;2023-04-24T10:45:25;8.60;;;7.90;;
12871;SDS011;6504;53.766;9.626;2023-04-24T10:47:54;8.53;;;7.77;;
12871;SDS011;6504;53.766;9.626;2023-04-24T10:50:25;9.20;;;8.40;;
12871;SDS011;6504;53.766;9.626;2023-04-24T10:53:04;8.60;;;7.90;;
12871;SDS011;6504;53.766;9.626;2023-04-24T10:55:40;9.00;;;8.30;;
12871;SDS011;6504;53.766;9.626;2023-04-24T10:58:12;9.20;;;8.40;;
12871;SDS011;6504;53.766;9.626;2023-04-24T11:00:41;8.70;;;8.00;;
12871;SDS011;6504;53.766;9.626;2023-04-24T11:03:24;9.27;;;8.47;;
12871;SDS011;6504;53.766;9.626;2023-04-24T11:05:57;9.37;;;8.57;;
12871;SDS011;6504;53.766;9.626;2023-04-24T11:08:31;8.73;;;8.00;;
12871;SDS011;6504;53.766;9.626;2023-04-24T11:11:07;9.53;;;8.60;;
12871;SDS011;6504;53.766;9.626;2023-04-24T11:16:35;10.40;;;9.50;;
12871;SDS011;6504;53.766;9.626;2023-04-24T11:19:17;9.73;;;8.87;;
12871;SDS011;6504;53.766;9.626;2023-04-24T11:21:48;10.57;;;9.57;;
12871;SDS011;6504;53.766;9.626;2023-04-24T11:24:23;11.47;;;10.37;;
12871;SDS011;6504;53.766;9.626;2023-04-24T11:26:59;12.33;;;11.20;;
12871;SDS011;6504;53.766;9.626;2023-04-24T11:29:40;12.43;;;11.33;;
12871;SDS011;6504;53.766;9.626;2023-04-24T11:32:22;14.03;;;12.80;;
12871;SDS011;6504;53.766;9.626;2023-04-24T11:34:53;14.77;;;13.40;;
12871;SDS011;6504;53.766;9.626;2023-04-24T11:37:26;15.10;;;13.63;;
12871;SDS011;6504;53.766;9.626;2023-04-24T11:39:55;14.10;;;12.80;;
12871;SDS011;6504;53.766;9.626;2023-04-24T11:42:26;14.40;;;13.03;;
12871;SDS011;6504;53.766;9.626;2023-04-24T11:44:57;15.50;;;14.00;;
12871;SDS011;6504;53.766;9.626;2023-04-24T11:47:27;14.83;;;13.50;;
12871;SDS011;6504;53.766;9.626;2023-04-24T11:49:57;14.50;;;13.10;;
12871;SDS011;6504;53.766;9.626;2023-04-24T11:52:27;15.37;;;13.97;;
12871;SDS011;6504;53.766;9.626;2023-04-24T11:54:56;15.80;;;14.30;;
12871;SDS011;6504;53.766;9.626;2023-04-24T11:57:25;13.70;;;12.53;;
12871;SDS011;6504;53.766;9.626;2023-04-24T11:59:56;13.63;;;12.37;;
12871;SDS011;6504;53.766;9.626;2023-04-24T12:02:25;14.30;;;12.70;;
12871;SDS011;6504;53.766;9.626;2023-04-24T12:04:54;12.90;;;11.73;;
12871;SDS011;6504;53.766;9.626;2023-04-24T12:07:23;12.63;;;11.53;;
12871;SDS011;6504;53.766;9.626;2023-04-24T12:09:55;12.43;;;11.33;;
12871;SDS011;6504;53.766;9.626;2023-04-24T12:12:26;13.20;;;11.83;;
12871;SDS011;6504;53.766;9.626;2023-04-24T12:14:55;12.60;;;11.50;;
12871;SDS011;6504;53.766;9.626;2023-04-24T12:17:26;12.77;;;11.57;;
12871;SDS011;6504;53.766;9.626;2023-04-24T12:19:58;13.70;;;12.33;;
12871;SDS011;6504;53.766;9.626;2023-04-24T12:22:28;12.57;;;11.47;;
12871;SDS011;6504;53.766;9.626;2023-04-24T12:25:11;13.37;;;12.17;;
12871;SDS011;6504;53.766;9.626;2023-04-24T12:27:39;12.57;;;11.57;;
12871;SDS011;6504;53.766;9.626;2023-04-24T12:30:11;12.40;;;11.40;;
12871;SDS011;6504;53.766;9.626;2023-04-24T12:32:41;11.70;;;10.63;;
12871;SDS011;6504;53.766;9.626;2023-04-24T12:35:10;12.93;;;11.67;;
12871;SDS011;6504;53.766;9.626;2023-04-24T12:37:41;13.60;;;11.83;;
12871;SDS011;6504;53.766;9.626;2023-04-24T12:40:13;11.57;;;10.57;;
12871;SDS011;6504;53.766;9.626;2023-04-24T12:42:42;11.47;;;10.47;;
12871;SDS011;6504;53.766;9.626;2023-04-24T12:45:13;11.20;;;10.20;;
12871;SDS011;6504;53.766;9.626;2023-04-24T12:47:41;11.37;;;10.33;;
12871;SDS011;6504;53.766;9.626;2023-04-24T12:50:11;11.10;;;10.10;;
12871;SDS011;6504;53.766;9.626;2023-04-24T12:52:40;9.23;;;8.43;;
12871;SDS011;6504;53.766;9.626;2023-04-24T12:55:09;8.87;;;8.17;;
12871;SDS011;6504;53.766;9.626;2023-04-24T12:57:38;8.70;;;7.90;;
12871;SDS011;6504;53.766;9.626;2023-04-24T13:00:07;8.60;;;7.87;;
12871;SDS011;6504;53.766;9.626;2023-04-24T13:02:38;9.20;;;8.50;;
12871;SDS011;6504;53.766;9.626;2023-04-24T13:05:06;8.77;;;7.97;;
12871;SDS011;6504;53.766;9.626;2023-04-24T13:07:35;8.63;;;7.93;;
12871;SDS011;6504;53.766;9.626;2023-04-24T13:10:03;9.00;;;8.10;;
12871;SDS011;6504;53.766;9.626;2023-04-24T13:12:32;9.20;;;8.40;;
12871;SDS011;6504;53.766;9.626;2023-04-24T13:15:00;9.00;;;8.23;;
12871;SDS011;6504;53.766;9.626;2023-04-24T13:17:28;9.33;;;8.53;;
12871;SDS011;6504;53.766;9.626;2023-04-24T13:19:58;10.13;;;9.37;;
12871;SDS011;6504;53.766;9.626;2023-04-24T13:22:26;9.63;;;8.93;;
12871;SDS011;6504;53.766;9.626;2023-04-24T13:24:54;9.87;;;9.17;;
12871;SDS011;6504;53.766;9.626;2023-04-24T13:27:23;9.00;;;8.20;;
12871;SDS011;6504;53.766;9.626;2023-04-24T13:29:51;9.60;;;8.80;;
12871;SDS011;6504;53.766;9.626;2023-04-24T13:32:19;9.30;;;8.53;;
12871;SDS011;6504;53.766;9.626;2023-04-24T13:34:47;9.17;;;8.47;;
12871;SDS011;6504;53.766;9.626;2023-04-24T13:37:17;9.10;;;8.40;;
12871;SDS011;6504;53.766;9.626;2023-04-24T13:39:45;9.10;;;8.40;;
12871;SDS011;6504;53.766;9.626;2023-04-24T13:42:13;9.20;;;8.50;;
12871;SDS011;6504;53.766;9.626;2023-04-24T13:44:41;9.43;;;8.53;;
12871;SDS011;6504;53.766;9.626;2023-04-24T13:47:09;10.07;;;9.27;;
12871;SDS011;6504;53.766;9.626;2023-04-24T13:49:37;10.23;;;9.53;;
12871;SDS011;6504;53.766;9.626;2023-04-24T13:52:05;10.47;;;9.67;;
12871;SDS011;6504;53.766;9.626;2023-04-24T13:54:34;10.40;;;9.60;;
12871;SDS011;6504;53.766;9.626;2023-04-24T13:57:02;11.70;;;10.70;;
12871;SDS011;6504;53.766;9.626;2023-04-24T13:59:31;11.43;;;10.47;;
12871;SDS011;6504;53.766;9.626;2023-04-24T14:01:59;11.33;;;10.43;;
12871;SDS011;6504;53.766;9.626;2023-04-24T14:04:27;10.30;;;9.40;;
12871;SDS011;6504;53.766;9.626;2023-04-24T14:06:55;10.47;;;9.63;;
12871;SDS011;6504;53.766;9.626;2023-04-24T14:09:23;10.37;;;9.57;;
12871;SDS011;6504;53.766;9.626;2023-04-24T14:11:53;9.97;;;9.17;;
12871;SDS011;6504;53.766;9.626;2023-04-24T14:14:21;9.70;;;8.93;;
12871;SDS011;6504;53.766;9.626;2023-04-24T14:16:49;10.70;;;9.80;;
12871;SDS011;6504;53.766;9.626;2023-04-24T14:19:17;9.40;;;8.63;;
12871;SDS011;6504;53.766;9.626;2023-04-24T14:21:45;11.20;;;10.30;;
12871;SDS011;6504;53.766;9.626;2023-04-24T14:24:13;9.77;;;8.97;;
12871;SDS011;6504;53.766;9.626;2023-04-24T14:26:41;9.17;;;8.47;;
12871;SDS011;6504;53.766;9.626;2023-04-24T14:29:11;9.03;;;8.33;;
12871;SDS011;6504;53.766;9.626;2023-04-24T14:31:40;10.13;;;9.23;;
12871;SDS011;6504;53.766;9.626;2023-04-24T14:34:09;9.60;;;8.80;;
12871;SDS011;6504;53.766;9.626;2023-04-24T14:36:37;10.10;;;9.20;;
12871;SDS011;6504;53.766;9.626;2023-04-24T14:39:05;9.17;;;8.37;;
12871;SDS011;6504;53.766;9.626;2023-04-24T14:41:34;8.37;;;7.67;;
12871;SDS011;6504;53.766;9.626;2023-04-24T14:44:03;6.27;;;5.77;;
12871;SDS011;6504;53.766;9.626;2023-04-24T14:46:33;3.50;;;3.20;;
12871;SDS011;6504;53.766;9.626;2023-04-24T14:49:01;3.70;;;3.40;;
12871;SDS011;6504;53.766;9.626;2023-04-24T14:51:29;4.40;;;4.00;;
12871;SDS011;6504;53.766;9.626;2023-04-24T14:53:57;4.60;;;4.20;;
12871;SDS011;6504;53.766;9.626;2023-04-24T14:56:25;4.53;;;4.17;;
12871;SDS011;6504;53.766;9.626;2023-04-24T14:58:53;4.83;;;4.37;;
12871;SDS011;6504;53.766;9.626;2023-04-24T15:01:22;5.10;;;4.60;;
12871;SDS011;6504;53.766;9.626;2023-04-24T15:03:52;5.43;;;4.53;;
12871;SDS011;6504;53.766;9.626;2023-04-24T15:06:21;5.17;;;4.67;;
12871;SDS011;6504;53.766;9.626;2023-04-24T15:08:49;4.57;;;4.17;;
12871;SDS011;6504;53.766;9.626;2023-04-24T15:11:17;4.67;;;3.97;;
12871;SDS011;6504;53.766;9.626;2023-04-24T15:13:46;4.53;;;4.20;;